createdAt,value
2023-02-17T00:02:02.846Z,94759.60
2023-02-17T00:04:30.324Z,94763.00
2023-02-17T00:06:57.917Z,94760.40
2023-02-17T00:09:25.461Z,94756.80
2023-02-17T00:11:53.010Z,94756.60
2023-02-17T00:14:20.514Z,94761.80
2023-02-17T00:16:48.117Z,94761.40
2023-02-17T00:19:25.548Z,94763.00
2023-02-17T00:21:53.190Z,94759.40
2023-02-17T00:24:21.018Z,94763.40
2023-02-17T00:26:48.493Z,94763.20
2023-02-17T00:29:16.038Z,94764.80
2023-02-17T00:31:43.624Z,94766.80
2023-02-17T00:34:11.340Z,94772.20
2023-02-17T00:36:39.012Z,94775.80
2023-02-17T00:39:06.564Z,94774.00
2023-02-17T00:41:34.201Z,94770.40
2023-02-17T00:44:01.845Z,94765.60
2023-02-17T00:46:29.509Z,94771.00
2023-02-17T00:48:57.137Z,94769.20
2023-02-17T00:51:25.031Z,94768.00
2023-02-17T00:53:52.514Z,94775.00
2023-02-17T00:56:20.089Z,94773.20
2023-02-17T00:58:47.653Z,94767.20
2023-02-17T01:01:15.266Z,94763.20
2023-02-17T01:03:42.842Z,94759.20
2023-02-17T01:06:10.438Z,94752.00
2023-02-17T01:08:38.010Z,94754.40
2023-02-17T01:11:05.613Z,94753.20
2023-02-17T01:13:33.312Z,94752.80
2023-02-17T01:16:00.896Z,94749.60
2023-02-17T01:18:28.703Z,94747.00
2023-02-17T01:20:56.267Z,94745.60
2023-02-17T01:23:23.758Z,94738.20
2023-02-17T01:25:51.639Z,94737.60
2023-02-17T01:28:19.160Z,94740.80
2023-02-17T01:30:46.709Z,94737.40
2023-02-17T01:33:14.301Z,94741.40
2023-02-17T01:35:41.950Z,94734.60
2023-02-17T01:38:09.572Z,94735.80
2023-02-17T01:40:37.105Z,94736.00
2023-02-17T01:43:04.603Z,94731.80
2023-02-17T01:45:32.126Z,94725.60
2023-02-17T01:47:59.617Z,94725.60
2023-02-17T01:50:27.158Z,94715.20
2023-02-17T01:52:54.803Z,94714.60
2023-02-17T01:55:22.343Z,94717.20
2023-02-17T01:57:49.962Z,94710.20
2023-02-17T02:00:17.590Z,94703.40
2023-02-17T02:02:45.169Z,94703.40
2023-02-17T02:05:12.766Z,94702.40
2023-02-17T02:07:40.245Z,94695.80
2023-02-17T02:10:07.736Z,94690.60
2023-02-17T02:12:35.285Z,94685.00
2023-02-17T02:15:02.902Z,94686.80
2023-02-17T02:17:30.428Z,94686.60
2023-02-17T02:19:57.951Z,94682.80
2023-02-17T02:22:25.601Z,94678.00
2023-02-17T02:24:53.442Z,94682.80
2023-02-17T02:27:20.945Z,94678.00
2023-02-17T02:29:48.408Z,94680.20
2023-02-17T02:32:15.893Z,94680.80
2023-02-17T02:34:43.454Z,94681.80
2023-02-17T02:37:11.111Z,94680.40
2023-02-17T02:39:38.568Z,94676.00
2023-02-17T02:42:06.186Z,94674.40
2023-02-17T02:44:33.747Z,94675.80
2023-02-17T02:47:01.249Z,94678.40
2023-02-17T02:49:28.807Z,94685.40
2023-02-17T02:51:56.426Z,94683.60
2023-02-17T02:54:24.069Z,94679.80
2023-02-17T02:56:51.629Z,94683.80
2023-02-17T02:59:19.381Z,94679.00
2023-02-17T03:01:46.872Z,94678.40
2023-02-17T03:04:14.505Z,94675.80
2023-02-17T03:06:42.313Z,94681.00
2023-02-17T03:09:09.765Z,94687.60
2023-02-17T03:11:37.300Z,94693.80
2023-02-17T03:14:04.762Z,94688.80
2023-02-17T03:16:32.284Z,94689.60
2023-02-17T03:18:59.915Z,94690.80
2023-02-17T03:21:27.420Z,94682.40
2023-02-17T03:23:54.980Z,94686.20
2023-02-17T03:26:22.511Z,94690.20
2023-02-17T03:28:49.973Z,94690.20
2023-02-17T03:31:17.565Z,94689.20
2023-02-17T03:33:45.233Z,94683.40
2023-02-17T03:36:12.759Z,94683.80
2023-02-17T03:38:40.301Z,94681.40
2023-02-17T03:41:07.858Z,94682.20
2023-02-17T03:43:35.490Z,94684.00
2023-02-17T03:46:03.120Z,94682.60
2023-02-17T03:48:30.773Z,94683.60
2023-02-17T03:50:58.289Z,94679.20
2023-02-17T03:53:25.735Z,94684.60
2023-02-17T03:55:53.458Z,94680.80
2023-02-17T03:58:20.978Z,94680.80
2023-02-17T04:00:48.433Z,94676.80
2023-02-17T04:03:15.973Z,94673.00
2023-02-17T04:05:43.491Z,94670.60
2023-02-17T04:08:11.054Z,94671.20
2023-02-17T04:10:38.597Z,94664.60
2023-02-17T04:13:06.092Z,94666.00
2023-02-17T04:15:33.897Z,94664.80
2023-02-17T04:18:01.532Z,94667.20
2023-02-17T04:20:29.054Z,94671.00
2023-02-17T04:22:56.540Z,94665.20
2023-02-17T04:25:24.371Z,94660.20
2023-02-17T04:27:51.907Z,94658.80
2023-02-17T04:30:19.407Z,94657.00
2023-02-17T04:32:46.931Z,94655.80
2023-02-17T04:35:14.602Z,94650.40
2023-02-17T04:37:42.056Z,94643.00
2023-02-17T04:40:10.579Z,94638.60
2023-02-17T04:42:38.224Z,94644.00
2023-02-17T04:45:05.988Z,94639.80
2023-02-17T04:47:33.627Z,94639.00
2023-02-17T04:50:01.153Z,94639.80
2023-02-17T04:52:28.743Z,94640.80
2023-02-17T04:54:56.323Z,94646.20
2023-02-17T04:57:23.962Z,94654.20
2023-02-17T04:59:51.694Z,94653.80
2023-02-17T05:02:19.302Z,94654.20
2023-02-17T05:04:47.020Z,94645.00
2023-02-17T05:07:14.506Z,94645.00
2023-02-17T05:09:42.246Z,94648.00
2023-02-17T05:12:09.783Z,94646.20
2023-02-17T05:14:37.289Z,94647.20
2023-02-17T05:17:05.125Z,94648.60
2023-02-17T05:19:32.582Z,94650.00
2023-02-17T05:22:00.134Z,94649.80
2023-02-17T05:24:27.738Z,94649.20
2023-02-17T05:26:55.394Z,94645.00
2023-02-17T05:29:24.322Z,94650.00
2023-02-17T05:31:52.382Z,94645.40
2023-02-17T05:34:19.991Z,94646.00
2023-02-17T05:36:47.539Z,94638.20
2023-02-17T05:39:15.123Z,94637.80
2023-02-17T05:41:42.586Z,94628.80
2023-02-17T05:44:10.117Z,94627.20
2023-02-17T05:46:38.114Z,94629.00
2023-02-17T05:49:05.651Z,94628.20
2023-02-17T05:51:33.163Z,94626.60
2023-02-17T05:54:00.664Z,94623.20
2023-02-17T05:56:28.164Z,94621.60
2023-02-17T05:58:55.816Z,94614.60
2023-02-17T06:01:23.301Z,94611.40
2023-02-17T06:03:50.762Z,94609.00
2023-02-17T06:06:18.291Z,94615.80
2023-02-17T06:08:45.845Z,94620.00
2023-02-17T06:11:13.359Z,94618.80
2023-02-17T06:13:41.046Z,94617.80
2023-02-17T06:16:08.765Z,94615.00
2023-02-17T06:18:36.704Z,94615.80
2023-02-17T06:21:04.344Z,94619.60
2023-02-17T06:23:32.108Z,94620.80
2023-02-17T06:25:59.640Z,94616.60
2023-02-17T06:28:27.170Z,94614.40
2023-02-17T06:30:54.804Z,94610.80
2023-02-17T06:33:22.502Z,94608.60
2023-02-17T06:35:50.379Z,94614.80
2023-02-17T06:38:18.014Z,94616.40
2023-02-17T06:40:45.555Z,94614.80
2023-02-17T06:43:13.101Z,94620.00
2023-02-17T06:45:40.716Z,94616.80
2023-02-17T06:48:08.216Z,94613.40
2023-02-17T06:50:35.870Z,94609.00
2023-02-17T06:53:03.573Z,94597.60
2023-02-17T06:55:31.174Z,94590.60
2023-02-17T06:57:58.626Z,94593.40
2023-02-17T07:00:27.146Z,94595.80
2023-02-17T07:02:54.739Z,94591.60
2023-02-17T07:05:22.397Z,94586.20
2023-02-17T07:07:50.245Z,94591.00
2023-02-17T07:10:17.829Z,94589.80
2023-02-17T07:12:45.490Z,94590.20
2023-02-17T07:15:13.128Z,94593.20
2023-02-17T07:17:40.805Z,94596.00
2023-02-17T07:20:09.361Z,94589.40
2023-02-17T07:22:36.894Z,94586.80
2023-02-17T07:25:04.541Z,94586.60
2023-02-17T07:27:32.311Z,94588.60
2023-02-17T07:29:59.879Z,94586.80
2023-02-17T07:32:27.453Z,94591.80
2023-02-17T07:34:55.236Z,94588.00
2023-02-17T07:37:22.819Z,94598.60
2023-02-17T07:39:50.309Z,94595.40
2023-02-17T07:42:17.797Z,94590.00
2023-02-17T07:44:45.440Z,94583.80
2023-02-17T07:47:13.059Z,94591.00
2023-02-17T07:49:40.573Z,94597.80
2023-02-17T07:52:08.105Z,94602.60
2023-02-17T07:54:35.619Z,94603.80
2023-02-17T07:57:03.103Z,94601.80
2023-02-17T07:59:30.848Z,94599.60
2023-02-17T08:01:58.567Z,94596.20
2023-02-17T08:04:26.095Z,94593.00
2023-02-17T08:06:53.735Z,94585.20
2023-02-17T08:09:40.087Z,94572.20
2023-02-17T08:12:26.473Z,94570.00
2023-02-17T08:14:53.961Z,94571.20
2023-02-17T08:17:21.449Z,94567.80
2023-02-17T08:19:49.695Z,94569.00
2023-02-17T08:22:17.435Z,94565.60
2023-02-17T08:24:45.223Z,94564.20
2023-02-17T08:27:13.517Z,94549.00
2023-02-17T08:29:41.031Z,94546.60
2023-02-17T08:32:08.718Z,94547.00
2023-02-17T08:34:36.685Z,94543.80
2023-02-17T08:37:04.250Z,94540.20
2023-02-17T08:39:31.711Z,94534.60
2023-02-17T08:41:59.302Z,94537.60
2023-02-17T08:44:26.800Z,94539.80
2023-02-17T08:46:54.342Z,94540.60
2023-02-17T08:49:21.945Z,94534.20
2023-02-17T08:51:49.554Z,94536.00
2023-02-17T08:54:17.032Z,94534.80
2023-02-17T08:56:44.809Z,94530.60
2023-02-17T08:59:12.321Z,94523.00
2023-02-17T09:01:40.019Z,94511.60
2023-02-17T09:04:08.118Z,94511.40
2023-02-17T09:06:35.736Z,94514.80
2023-02-17T09:09:03.956Z,94507.80
2023-02-17T09:11:31.500Z,94511.00
2023-02-17T09:13:59.074Z,94517.40
2023-02-17T09:16:26.766Z,94516.40
2023-02-17T09:18:54.479Z,94515.60
2023-02-17T09:21:22.077Z,94514.40
2023-02-17T09:23:49.620Z,94512.20
2023-02-17T09:26:17.393Z,94511.20
2023-02-17T09:28:44.938Z,94502.40
2023-02-17T09:31:12.656Z,94501.20
2023-02-17T09:33:43.258Z,94500.20
2023-02-17T09:36:10.837Z,94503.80
2023-02-17T09:38:38.418Z,94506.00
2023-02-17T09:41:05.930Z,94504.20
2023-02-17T09:43:33.536Z,94503.60
2023-02-17T09:46:01.168Z,94507.00
2023-02-17T09:48:28.843Z,94505.00
2023-02-17T09:50:56.477Z,94506.00
2023-02-17T09:53:23.989Z,94508.00
2023-02-17T09:55:51.464Z,94507.60
2023-02-17T09:58:19.146Z,94510.80
2023-02-17T10:00:46.888Z,94513.20
2023-02-17T10:03:17.466Z,94514.20
2023-02-17T10:05:45.721Z,94513.00
2023-02-17T10:08:13.214Z,94511.40
2023-02-17T10:10:41.031Z,94506.00
2023-02-17T10:13:09.443Z,94499.20
2023-02-17T10:15:37.190Z,94494.00
2023-02-17T10:18:04.976Z,94489.00
2023-02-17T10:20:34.595Z,94488.20
2023-02-17T10:23:02.643Z,94483.40
2023-02-17T10:25:30.319Z,94481.20
2023-02-17T10:27:57.916Z,94480.40
2023-02-17T10:30:25.539Z,94481.80
2023-02-17T10:32:53.230Z,94481.40
2023-02-17T10:35:20.720Z,94479.20
2023-02-17T10:37:48.451Z,94477.00
2023-02-17T10:40:16.224Z,94473.00
2023-02-17T10:42:43.762Z,94470.60
2023-02-17T10:45:11.261Z,94465.80
2023-02-17T10:47:38.768Z,94459.20
2023-02-17T10:50:06.255Z,94455.80
2023-02-17T10:52:33.757Z,94453.40
2023-02-17T10:55:06.596Z,94448.80
2023-02-17T10:57:39.145Z,94447.20
2023-02-17T11:00:07.932Z,94434.00
2023-02-17T11:02:36.645Z,94428.20
2023-02-17T11:05:04.211Z,94435.20
2023-02-17T11:07:32.570Z,94431.80
2023-02-17T11:10:00.099Z,94426.60
2023-02-17T11:12:27.627Z,94419.60
2023-02-17T11:14:55.215Z,94411.80
2023-02-17T11:17:22.952Z,94406.00
2023-02-17T11:19:50.464Z,94403.80
2023-02-17T11:22:18.042Z,94405.80
2023-02-17T11:24:45.562Z,94404.00
2023-02-17T11:27:13.324Z,94397.60
2023-02-17T11:29:41.242Z,94394.00
2023-02-17T11:32:09.138Z,94398.20
2023-02-17T11:34:36.802Z,94398.00
2023-02-17T11:37:04.362Z,94400.20
2023-02-17T11:39:32.138Z,94392.80
2023-02-17T11:41:59.850Z,94387.00
2023-02-17T11:44:27.372Z,94379.00
2023-02-17T11:46:54.911Z,94377.40
2023-02-17T11:49:22.659Z,94369.00
2023-02-17T11:51:50.253Z,94373.20
2023-02-17T11:54:17.965Z,94373.60
2023-02-17T11:56:48.243Z,94376.40
2023-02-17T11:59:15.874Z,94372.80
2023-02-17T12:01:43.440Z,94370.00
2023-02-17T12:04:10.903Z,94362.00
2023-02-17T12:06:38.634Z,94364.20
2023-02-17T12:09:08.012Z,94366.00
2023-02-17T12:11:37.435Z,94363.80
2023-02-17T12:14:05.859Z,94353.00
2023-02-17T12:16:33.362Z,94356.80
2023-02-17T12:19:01.014Z,94359.00
2023-02-17T12:21:28.834Z,94350.40
2023-02-17T12:23:56.472Z,94356.00
2023-02-17T12:26:23.965Z,94358.00
2023-02-17T12:28:51.606Z,94353.80
2023-02-17T12:31:19.331Z,94359.20
2023-02-17T12:33:47.941Z,94354.60
2023-02-17T12:36:15.828Z,94353.40
2023-02-17T12:38:43.575Z,94349.60
2023-02-17T12:41:11.133Z,94346.00
2023-02-17T12:43:38.678Z,94346.40
2023-02-17T12:46:06.484Z,94344.00
2023-02-17T12:48:34.379Z,94341.00
2023-02-17T12:51:02.172Z,94330.00
2023-02-17T12:53:29.793Z,94332.80
2023-02-17T12:55:57.315Z,94334.20
2023-02-17T12:58:26.315Z,94332.80
2023-02-17T13:00:53.876Z,94330.40
2023-02-17T13:03:21.511Z,94321.20
2023-02-17T13:05:49.117Z,94309.80
2023-02-17T13:08:16.767Z,94308.80
2023-02-17T13:10:44.412Z,94309.80
2023-02-17T13:13:12.164Z,94300.00
2023-02-17T13:15:40.174Z,94308.00
2023-02-17T13:18:07.767Z,94309.00
2023-02-17T13:20:35.294Z,94302.40
2023-02-17T13:23:02.853Z,94297.00
2023-02-17T13:25:30.423Z,94292.80
2023-02-17T13:27:58.010Z,94295.60
2023-02-17T13:30:25.674Z,94299.80
2023-02-17T13:32:53.319Z,94305.60
2023-02-17T13:35:21.095Z,94307.00
2023-02-17T13:37:48.702Z,94308.20
2023-02-17T13:40:16.301Z,94303.60
2023-02-17T13:42:49.813Z,94301.80
2023-02-17T13:45:17.397Z,94293.60
2023-02-17T13:47:44.956Z,94288.20
2023-02-17T13:50:12.552Z,94277.20
2023-02-17T13:52:40.174Z,94262.40
2023-02-17T13:55:07.840Z,94260.60
2023-02-17T13:57:35.904Z,94251.00
2023-02-17T14:00:03.391Z,94249.40
2023-02-17T14:02:36.398Z,94240.80
2023-02-17T14:05:04.316Z,94236.80
2023-02-17T14:07:31.838Z,94230.20
2023-02-17T14:09:59.341Z,94217.80
2023-02-17T14:12:27.488Z,94214.00
2023-02-17T14:14:55.073Z,94223.60
2023-02-17T14:17:22.894Z,94217.40
2023-02-17T14:19:51.561Z,94215.40
2023-02-17T14:22:19.109Z,94215.40
2023-02-17T14:24:46.691Z,94217.80
2023-02-17T14:27:14.364Z,94221.20
2023-02-17T14:29:42.018Z,94219.60
2023-02-17T14:32:09.551Z,94220.20
2023-02-17T14:34:37.212Z,94218.40
2023-02-17T14:37:05.368Z,94215.20
2023-02-17T14:39:32.908Z,94216.20
2023-02-17T14:42:00.596Z,94212.00
2023-02-17T14:44:28.192Z,94204.60
2023-02-17T14:46:55.842Z,94207.80
2023-02-17T14:49:23.452Z,94207.00
2023-02-17T14:51:50.922Z,94206.80
2023-02-17T14:54:18.395Z,94203.40
2023-02-17T14:56:45.956Z,94198.00
2023-02-17T14:59:13.437Z,94202.60
2023-02-17T15:01:41.172Z,94200.20
2023-02-17T15:04:08.798Z,94205.40
2023-02-17T15:06:36.283Z,94199.40
2023-02-17T15:09:04.023Z,94197.60
2023-02-17T15:11:31.630Z,94193.80
2023-02-17T15:13:59.291Z,94192.20
2023-02-17T15:16:26.884Z,94187.80
2023-02-17T15:18:54.717Z,94176.20
2023-02-17T15:21:22.228Z,94175.20
2023-02-17T15:23:49.819Z,94168.20
2023-02-17T15:26:17.608Z,94159.80
2023-02-17T15:28:45.164Z,94154.20
2023-02-17T15:31:12.768Z,94153.20
2023-02-17T15:33:40.404Z,94150.80
2023-02-17T15:36:11.762Z,94143.20
2023-02-17T15:38:40.470Z,94136.80
2023-02-17T15:41:08.296Z,94132.80
2023-02-17T15:46:04.568Z,94137.20
2023-02-17T15:48:34.124Z,94135.40
2023-02-17T15:51:01.669Z,94136.60
2023-02-17T15:53:32.500Z,94130.00
2023-02-17T15:56:03.120Z,94126.00
2023-02-17T15:58:30.727Z,94122.80
2023-02-17T16:01:00.387Z,94120.40
2023-02-17T16:03:28.305Z,94127.40
2023-02-17T16:05:56.312Z,94128.00
2023-02-17T16:08:23.870Z,94126.20
2023-02-17T16:10:52.399Z,94116.60
2023-02-17T16:13:23.037Z,94110.00
2023-02-17T16:15:50.822Z,94100.00
2023-02-17T16:18:18.572Z,94094.60
2023-02-17T16:20:46.155Z,94091.40
2023-02-17T16:23:13.723Z,94088.40
2023-02-17T16:25:41.392Z,94082.40
2023-02-17T16:28:08.848Z,94072.80
2023-02-17T16:30:36.428Z,94069.00
2023-02-17T16:33:04.238Z,94064.20
2023-02-17T16:35:31.866Z,94061.00
2023-02-17T16:37:59.489Z,94061.40
2023-02-17T16:40:27.104Z,94071.00
2023-02-17T16:42:54.636Z,94065.00
2023-02-17T16:45:22.305Z,94066.00
2023-02-17T16:47:49.955Z,94061.80
2023-02-17T16:50:17.455Z,94057.60
2023-02-17T16:52:45.029Z,94055.80
2023-02-17T16:55:12.854Z,94057.40
2023-02-17T16:57:40.346Z,94062.20
2023-02-17T17:00:08.220Z,94052.60
2023-02-17T17:02:35.802Z,94053.40
2023-02-17T17:05:03.489Z,94053.40
2023-02-17T17:07:30.972Z,94052.20
2023-02-17T17:10:15.372Z,94050.20
2023-02-17T17:12:43.948Z,94052.00
2023-02-17T17:15:11.552Z,94055.80
2023-02-17T17:17:39.206Z,94056.20
2023-02-17T17:20:06.704Z,94053.20
2023-02-17T17:22:34.250Z,94048.40
2023-02-17T17:25:01.868Z,94038.20
2023-02-17T17:27:29.403Z,94042.60
2023-02-17T17:29:56.951Z,94033.60
2023-02-17T17:32:24.530Z,94027.00
2023-02-17T17:34:52.277Z,94020.60
2023-02-17T17:37:19.882Z,94015.20
2023-02-17T17:39:47.455Z,94018.40
2023-02-17T17:42:15.771Z,94013.20
2023-02-17T17:44:43.285Z,94013.60
2023-02-17T17:47:13.889Z,94013.00
2023-02-17T17:49:46.002Z,94014.00
2023-02-17T17:52:16.429Z,94010.80
2023-02-17T17:54:43.990Z,94006.80
2023-02-17T17:57:11.537Z,93997.20
2023-02-17T17:59:39.768Z,94009.00
2023-02-17T18:02:07.427Z,94019.60
2023-02-17T18:04:35.193Z,94023.00
2023-02-17T18:07:03.531Z,94021.80
2023-02-17T18:09:32.278Z,94027.40
2023-02-17T18:12:03.080Z,94016.40
2023-02-17T18:14:30.580Z,94031.40
2023-02-17T18:16:58.015Z,94024.00
2023-02-17T18:19:25.673Z,94018.20
2023-02-17T18:21:53.162Z,94019.20
2023-02-17T18:24:20.681Z,94005.00
2023-02-17T18:26:48.317Z,93997.00
2023-02-17T18:29:15.824Z,93993.00
2023-02-17T18:31:43.356Z,93989.40
2023-02-17T18:34:11.108Z,93989.20
2023-02-17T18:36:38.664Z,93992.60
2023-02-17T18:39:06.279Z,93988.00
2023-02-17T18:41:34.133Z,93991.40
2023-02-17T18:44:01.728Z,93983.60
2023-02-17T18:46:29.292Z,93969.40
2023-02-17T18:48:56.977Z,93960.00
2023-02-17T18:51:25.980Z,93945.40
2023-02-17T18:53:53.472Z,93942.20
2023-02-17T18:56:21.149Z,93953.20
2023-02-17T18:58:49.468Z,93944.40
2023-02-17T19:01:17.422Z,93947.40
2023-02-17T19:03:45.044Z,93956.20
2023-02-17T19:06:12.702Z,93959.60
2023-02-17T19:08:41.483Z,93959.00
2023-02-17T19:11:09.044Z,93957.20
2023-02-17T19:13:36.538Z,93970.00
2023-02-17T19:16:04.103Z,93965.40
2023-02-17T19:18:31.658Z,93967.40
2023-02-17T19:20:59.462Z,93962.60
2023-02-17T19:23:27.145Z,93953.60
2023-02-17T19:25:54.752Z,93951.60
2023-02-17T19:28:22.282Z,93956.80
2023-02-17T19:30:49.947Z,93962.60
2023-02-17T19:33:17.527Z,93974.00
2023-02-17T19:35:45.242Z,93989.20
2023-02-17T19:38:13.123Z,93988.40
2023-02-17T19:40:40.717Z,93994.80
2023-02-17T19:43:11.024Z,93991.60
2023-02-17T19:45:38.919Z,93997.20
2023-02-17T19:48:06.716Z,93997.00
2023-02-17T19:50:34.438Z,93998.20
2023-02-17T19:53:02.061Z,94002.00
2023-02-17T19:55:29.619Z,94004.80
2023-02-17T19:57:57.312Z,94008.80
2023-02-17T20:00:25.071Z,94013.40
2023-02-17T20:02:52.881Z,94017.00
2023-02-17T20:05:20.809Z,94014.00
2023-02-17T20:07:50.475Z,94025.20
2023-02-17T20:10:19.795Z,94025.00
2023-02-17T20:12:47.298Z,94024.20
2023-02-17T20:15:14.809Z,94026.80
2023-02-17T20:17:42.451Z,94021.40
2023-02-17T20:20:10.811Z,94012.00
2023-02-17T20:22:38.668Z,94005.80
2023-02-17T20:25:07.174Z,94014.60
2023-02-17T20:27:35.206Z,94014.80
2023-02-17T20:30:02.970Z,94008.00
2023-02-17T20:32:30.752Z,94014.80
2023-02-17T20:34:58.370Z,94015.80
2023-02-17T20:37:25.884Z,94014.80
2023-02-17T20:39:53.651Z,94025.40
2023-02-17T20:42:21.140Z,94024.80
2023-02-17T20:44:50.281Z,94030.00
2023-02-17T20:47:18.211Z,94022.40
2023-02-17T20:49:46.556Z,94007.80
2023-02-17T20:52:14.564Z,94015.80
2023-02-17T20:54:42.065Z,94015.00
2023-02-17T20:57:09.714Z,94009.00
2023-02-17T20:59:37.294Z,93993.80
2023-02-17T21:02:04.960Z,94001.60
2023-02-17T21:04:32.458Z,93997.80
2023-02-17T21:07:01.423Z,93993.40
2023-02-17T21:09:29.159Z,93992.60
2023-02-17T21:11:56.656Z,93982.00
2023-02-17T21:14:24.193Z,93980.00
2023-02-17T21:16:51.913Z,93989.60
2023-02-17T21:19:19.687Z,93980.40
2023-02-17T21:21:47.279Z,93971.00
2023-02-17T21:24:15.145Z,93974.40
2023-02-17T21:26:42.658Z,93964.60
2023-02-17T21:29:10.139Z,93986.40
2023-02-17T21:31:37.756Z,93994.00
2023-02-17T21:34:05.678Z,94000.80
2023-02-17T21:36:33.437Z,94001.20
2023-02-17T21:39:01.030Z,93996.60
2023-02-17T21:41:30.345Z,93988.60
2023-02-17T21:44:17.148Z,93983.20
2023-02-17T21:46:45.233Z,93995.40
2023-02-17T21:49:12.746Z,94007.80
2023-02-17T21:51:40.431Z,94012.80
2023-02-17T21:54:08.102Z,94006.20
2023-02-17T21:56:36.370Z,94007.40
2023-02-17T21:59:03.881Z,94003.60
2023-02-17T22:01:31.351Z,94010.40
2023-02-17T22:03:58.950Z,94005.60
2023-02-17T22:06:26.574Z,93993.20
2023-02-17T22:08:54.095Z,93988.40
2023-02-17T22:11:21.595Z,93993.60
2023-02-17T22:13:49.209Z,93997.20
2023-02-17T22:16:16.746Z,94007.00
2023-02-17T22:18:44.396Z,94004.80
2023-02-17T22:21:12.017Z,94001.80
2023-02-17T22:23:39.554Z,94008.00
2023-02-17T22:26:07.630Z,94003.00
2023-02-17T22:28:35.488Z,93994.20
2023-02-17T22:31:03.086Z,93995.00
2023-02-17T22:33:30.630Z,93994.00
2023-02-17T22:35:58.416Z,93986.80
2023-02-17T22:38:25.896Z,93985.40
2023-02-17T22:40:53.351Z,93986.80
2023-02-17T22:43:21.016Z,93985.80
2023-02-17T22:45:48.484Z,93983.00
2023-02-17T22:48:16.068Z,93979.40
2023-02-17T22:50:43.633Z,93981.40
2023-02-17T22:53:11.092Z,93980.20
2023-02-17T22:55:38.576Z,93975.60
2023-02-17T22:58:06.128Z,93973.80
2023-02-17T23:00:33.662Z,93970.40
2023-02-17T23:03:01.345Z,93967.40
2023-02-17T23:05:28.896Z,93965.60
2023-02-17T23:07:56.378Z,93964.20
2023-02-17T23:10:23.856Z,93962.60
2023-02-17T23:12:51.348Z,93961.00
2023-02-17T23:15:18.840Z,93972.60
2023-02-17T23:17:58.922Z,93968.20
2023-02-17T23:20:26.420Z,93973.60
2023-02-17T23:22:53.969Z,93968.20
2023-02-17T23:25:21.508Z,93965.60
2023-02-17T23:27:49.183Z,93966.40
2023-02-17T23:30:16.715Z,93969.60
2023-02-17T23:32:44.706Z,93967.80
2023-02-17T23:35:12.245Z,93974.00
2023-02-17T23:37:39.752Z,93972.00
2023-02-17T23:40:07.480Z,93972.40
2023-02-17T23:42:35.011Z,93974.60
2023-02-17T23:45:02.485Z,93972.60
2023-02-17T23:47:30.042Z,93962.40
2023-02-17T23:49:57.541Z,93965.00
2023-02-17T23:52:25.125Z,93949.00
2023-02-17T23:54:52.905Z,93947.60
2023-02-17T23:57:20.405Z,93950.40
2023-02-17T23:59:47.929Z,93944.80
